Time;durP1;ratioP1;P1;durP2;ratioP2;P2;SDS_P1;SDS_P2;PMS_P1;PMS_P2;Temp;Humidity;BMP_temperature;BMP_pressure;BME280_temperature;BME280_humidity;BME280_pressure;Samples;Min_cycle;Max_cycle;Signal;HPM_P1;HPM_P2
2022/05/05 00:00:51;;;;;;;7.15;5.18;;;12.30;93.10;;;;;;2068930;28;20474;-71
2022/05/05 00:01:52;;;;;;;10.90;5.22;;;12.30;93.00;;;;;;2070395;28;20045;-71
2022/05/05 00:02:53;;;;;;;6.80;5.15;;;12.30;93.30;;;;;;2072820;28;20021;-71
2022/05/05 00:03:53;;;;;;;6.20;4.40;;;12.30;94.50;;;;;;2067607;28;20026;-71
2022/05/05 00:04:54;;;;;;;8.55;5.65;;;12.30;94.20;;;;;;2069153;28;20489;-71
2022/05/05 00:05:54;;;;;;;7.28;4.78;;;12.30;94.40;;;;;;2072694;28;20050;-71
2022/05/05 00:06:55;;;;;;;7.05;5.00;;;12.30;93.50;;;;;;2071592;28;20021;-71
2022/05/05 00:07:55;;;;;;;7.00;4.70;;;12.30;93.20;;;;;;2072620;28;20765;-71
2022/05/05 00:08:56;;;;;;;6.22;4.07;;;12.30;92.70;;;;;;2074177;28;20032;-71
2022/05/05 00:09:57;;;;;;;6.20;4.80;;;12.40;91.60;;;;;;2070684;28;20033;-71
2022/05/05 00:14:55;;;;;;;7.30;5.32;;;12.40;94.60;;;;;;2071755;28;20030;-71
2022/05/05 00:15:56;;;;;;;5.85;4.38;;;12.40;96.10;;;;;;2069422;28;20136;-71
2022/05/05 00:16:58;;;;;;;9.30;4.45;;;12.40;96.60;;;;;;2069915;28;20097;-71
2022/05/05 00:17:59;;;;;;;8.93;4.63;;;12.40;95.10;;;;;;2072234;28;20112;-71
2022/05/05 00:19:01;;;;;;;6.65;4.15;;;12.40;94.20;;;;;;2074927;28;20018;-71
2022/05/05 00:20:01;;;;;;;9.25;4.47;;;12.40;93.50;;;;;;2067701;28;20740;-71
2022/05/05 00:21:02;;;;;;;6.45;5.03;;;12.40;93.20;;;;;;2062666;28;20054;-71
2022/05/05 00:22:04;;;;;;;9.27;5.60;;;12.40;94.10;;;;;;2070171;28;20113;-71
2022/05/05 00:23:05;;;;;;;6.97;5.00;;;12.40;95.00;;;;;;2070661;28;20022;-71
2022/05/05 00:24:06;;;;;;;6.07;4.65;;;12.40;95.40;;;;;;2073036;28;20026;-71
2022/05/05 00:25:07;;;;;;;9.95;4.75;;;12.40;94.90;;;;;;2073868;28;20520;-71
2022/05/05 00:26:08;;;;;;;7.82;5.30;;;12.40;94.50;;;;;;2068184;28;20766;-71
2022/05/05 00:27:08;;;;;;;7.55;5.00;;;12.40;95.20;;;;;;2069653;28;20033;-71
2022/05/05 00:28:09;;;;;;;9.00;5.10;;;12.40;95.20;;;;;;2070103;28;20108;-71
2022/05/05 00:29:10;;;;;;;7.60;5.18;;;12.50;95.40;;;;;;2069761;28;20050;-71
2022/05/05 00:30:10;;;;;;;7.10;5.07;;;12.50;95.80;;;;;;2069800;28;20030;-71
2022/05/05 00:31:11;;;;;;;8.30;4.70;;;12.50;96.50;;;;;;2071416;28;20092;-71
2022/05/05 00:32:12;;;;;;;6.82;4.57;;;12.50;96.00;;;;;;2071225;28;20136;-71
2022/05/05 00:33:12;;;;;;;8.85;5.32;;;12.50;95.40;;;;;;2072716;28;20101;-71
2022/05/05 00:34:13;;;;;;;8.70;4.93;;;12.50;95.70;;;;;;2070726;28;20030;-71
2022/05/05 00:35:14;;;;;;;8.57;5.20;;;12.50;96.50;;;;;;2071437;28;20022;-71
2022/05/05 00:36:15;;;;;;;8.20;5.15;;;12.50;96.80;;;;;;2073941;28;20148;-71
2022/05/05 00:37:15;;;;;;;7.13;4.40;;;12.50;97.40;;;;;;2070432;28;20029;-71
2022/05/05 00:38:17;;;;;;;6.32;4.55;;;12.50;96.50;;;;;;2064152;28;20026;-71
2022/05/05 00:39:17;;;;;;;6.22;4.97;;;12.50;97.10;;;;;;2069943;28;20099;-71
2022/05/05 00:40:18;;;;;;;5.45;4.55;;;12.50;97.60;;;;;;2069436;28;20077;-71
2022/05/05 00:41:18;;;;;;;9.20;4.90;;;12.50;96.90;;;;;;2073456;28;20029;-71
2022/05/05 00:42:19;;;;;;;6.63;4.90;;;12.50;96.50;;;;;;2071003;28;20050;-71
2022/05/05 00:43:20;;;;;;;8.50;5.10;;;12.50;97.70;;;;;;2067429;28;20053;-71
2022/05/05 00:44:21;;;;;;;8.02;4.43;;;12.50;98.00;;;;;;2070520;28;20385;-71
2022/05/05 00:45:21;;;;;;;6.43;4.70;;;12.50;97.00;;;;;;2070466;28;20026;-71
2022/05/05 00:46:22;;;;;;;7.50;5.28;;;12.50;96.80;;;;;;2069441;28;20064;-71
2022/05/05 00:47:22;;;;;;;8.70;4.70;;;12.50;97.40;;;;;;2069140;28;20036;-71
2022/05/05 00:48:27;;;;;;;8.57;5.00;;;12.60;96.50;;;;;;2070793;28;20029;-71
2022/05/05 00:49:29;;;;;;;5.90;4.68;;;12.60;96.60;;;;;;2066554;28;20430;-71
2022/05/05 00:50:33;;;;;;;6.25;4.30;;;12.50;96.00;;;;;;2073474;28;20057;-71
2022/05/05 00:51:33;;;;;;;8.73;4.80;;;12.60;95.00;;;;;;2070967;28;20057;-71
2022/05/05 00:52:34;;;;;;;7.80;5.47;;;12.50;95.10;;;;;;2073380;28;20133;-71
2022/05/05 00:53:34;;;;;;;7.10;4.93;;;12.50;95.90;;;;;;2072138;28;20080;-71
2022/05/05 00:54:35;;;;;;;10.70;5.15;;;12.60;96.20;;;;;;2075321;28;20112;-71
2022/05/05 00:55:39;;;;;;;10.45;5.47;;;12.50;96.50;;;;;;2067481;28;20018;-71
2022/05/05 00:56:40;;;;;;;9.90;5.50;;;12.50;97.00;;;;;;2074297;28;20030;-71
2022/05/05 00:57:41;;;;;;;6.70;4.55;;;12.50;97.00;;;;;;2069289;28;20038;-71
2022/05/05 00:58:46;;;;;;;8.82;5.10;;;12.50;97.50;;;;;;2069529;28;20022;-71
2022/05/05 00:59:47;;;;;;;9.10;5.20;;;12.50;98.70;;;;;;2071030;28;20034;-71
2022/05/05 01:00:48;;;;;;;6.13;4.55;;;12.50;98.60;;;;;;2073589;28;20049;-71
2022/05/05 01:01:48;;;;;;;7.43;4.45;;;12.50;97.60;;;;;;2071862;28;20037;-71
2022/05/05 01:02:49;;;;;;;7.55;4.75;;;12.50;98.50;;;;;;2072819;28;20057;-71
2022/05/05 01:03:50;;;;;;;8.23;4.78;;;12.50;98.60;;;;;;2071649;28;20549;-71
2022/05/05 01:04:51;;;;;;;9.18;5.25;;;12.50;99.30;;;;;;2072610;28;20398;-71
2022/05/05 01:05:51;;;;;;;7.20;4.50;;;12.50;99.10;;;;;;2069908;28;20029;-71
2022/05/05 01:06:52;;;;;;;6.25;4.50;;;12.50;98.10;;;;;;2074179;28;20022;-71
2022/05/05 01:07:57;;;;;;;7.20;4.70;;;12.60;98.60;;;;;;2070188;28;20089;-71
2022/05/05 01:08:58;;;;;;;5.65;4.50;;;12.60;99.30;;;;;;2071201;28;20026;-71
2022/05/05 01:09:59;;;;;;;11.27;5.88;;;12.60;99.00;;;;;;2071524;28;20033;-71
2022/05/05 01:11:00;;;;;;;10.45;5.72;;;12.60;99.70;;;;;;2070970;28;20547;-71
2022/05/05 01:12:02;;;;;;;7.07;4.70;;;12.60;99.90;;;;;;2070977;28;20029;-71
2022/05/05 01:13:03;;;;;;;7.13;5.18;;;12.60;99.90;;;;;;2072342;28;20018;-71
2022/05/05 01:14:04;;;;;;;9.05;5.20;;;12.60;99.90;;;;;;2071013;28;20022;-71
2022/05/05 01:15:05;;;;;;;8.50;5.32;;;12.60;99.90;;;;;;2070247;28;20022;-71
2022/05/05 01:16:07;;;;;;;5.97;4.55;;;12.60;99.90;;;;;;2068386;28;20018;-71
2022/05/05 01:17:08;;;;;;;7.97;5.22;;;12.60;99.90;;;;;;2068020;28;20026;-71
2022/05/05 01:18:08;;;;;;;6.80;4.47;;;12.60;99.90;;;;;;2072666;28;20022;-71
2022/05/05 01:19:09;;;;;;;10.07;5.40;;;12.60;99.30;;;;;;2073272;28;20073;-71
2022/05/05 01:20:18;;;;;;;10.25;5.60;;;12.60;99.90;;;;;;2069708;28;20037;-71
2022/05/05 01:21:19;;;;;;;6.95;4.90;;;12.60;99.90;;;;;;2072943;28;20018;-71
2022/05/05 01:22:20;;;;;;;6.47;4.97;;;12.60;99.90;;;;;;2071417;28;20025;-71
2022/05/05 01:23:21;;;;;;;7.25;5.38;;;12.60;99.90;;;;;;2072196;28;20025;-71
2022/05/05 01:28:10;;;;;;;9.70;5.70;;;12.60;99.90;;;;;;2070100;28;20472;-71
2022/05/05 01:28:22;;;;;;;6.78;4.85;;;12.60;99.90;;;;;;2070246;28;20219;-71
2022/05/05 01:29:23;;;;;;;8.60;4.70;;;12.50;99.90;;;;;;2071041;28;20397;-71
2022/05/05 01:30:24;;;;;;;5.80;4.93;;;12.60;99.90;;;;;;2068084;28;20029;-71
2022/05/05 01:31:24;;;;;;;12.23;5.95;;;12.60;99.90;;;;;;2067168;28;20018;-71
2022/05/05 01:32:32;;;;;;;5.80;5.22;;;12.60;99.90;;;;;;2068484;28;20022;-71
2022/05/05 01:33:33;;;;;;;8.15;5.88;;;12.60;99.90;;;;;;2071858;28;20018;-71
2022/05/05 01:34:34;;;;;;;7.93;5.00;;;12.60;99.90;;;;;;2074083;28;20026;-71
2022/05/05 01:35:35;;;;;;;9.82;5.25;;;12.60;99.90;;;;;;2070907;28;20026;-71
2022/05/05 01:36:35;;;;;;;8.13;5.78;;;12.60;99.90;;;;;;2072263;28;20022;-71
2022/05/05 01:37:36;;;;;;;7.68;5.13;;;12.70;99.90;;;;;;2068060;28;20018;-71
2022/05/05 01:38:36;;;;;;;8.63;5.47;;;12.60;99.90;;;;;;2068952;28;20022;-71
2022/05/05 01:39:37;;;;;;;9.88;5.75;;;12.60;99.90;;;;;;2071904;28;20014;-71
2022/05/05 01:40:39;;;;;;;9.60;5.63;;;12.60;99.90;;;;;;2072069;28;20029;-71
2022/05/05 01:41:40;;;;;;;8.50;5.85;;;12.70;99.90;;;;;;2070709;28;20038;-71
2022/05/05 01:42:40;;;;;;;12.98;6.43;;;12.70;99.90;;;;;;2065850;28;20099;-71
2022/05/05 01:43:43;;;;;;;8.25;5.40;;;12.70;99.90;;;;;;2070894;28;20059;-71
2022/05/05 01:44:44;;;;;;;7.15;5.65;;;12.70;99.90;;;;;;2070624;28;20026;-71
2022/05/05 01:45:45;;;;;;;7.32;5.88;;;12.70;99.90;;;;;;2069292;28;20022;-71
2022/05/05 01:46:52;;;;;;;8.60;5.90;;;12.70;99.90;;;;;;2068921;28;20765;-71
2022/05/05 01:47:52;;;;;;;8.00;5.57;;;12.70;99.90;;;;;;2068601;28;20079;-71
2022/05/05 01:48:53;;;;;;;8.18;6.07;;;12.70;99.90;;;;;;2072267;28;20033;-71
2022/05/05 01:49:58;;;;;;;10.85;7.05;;;12.60;99.90;;;;;;2067001;28;20681;-71
2022/05/05 01:50:59;;;;;;;7.03;6.00;;;12.70;99.90;;;;;;2070931;28;20474;-71
2022/05/05 01:52:00;;;;;;;8.05;5.78;;;12.70;99.90;;;;;;2072423;28;20029;-71
2022/05/05 01:53:01;;;;;;;6.93;4.97;;;12.70;99.90;;;;;;2069776;28;20021;-71
2022/05/05 01:54:01;;;;;;;8.20;5.85;;;12.70;99.90;;;;;;2066951;28;20030;-71
2022/05/05 01:55:02;;;;;;;10.80;5.40;;;12.70;99.90;;;;;;2069217;28;20102;-71
2022/05/05 01:56:13;;;;;;;8.80;6.03;;;12.70;99.90;;;;;;2072083;28;20053;-71
2022/05/05 01:57:14;;;;;;;7.78;6.20;;;12.70;99.90;;;;;;2068299;28;20018;-71
2022/05/05 01:58:14;;;;;;;10.30;5.95;;;12.70;99.90;;;;;;2070568;28;20129;-71
2022/05/05 01:59:15;;;;;;;7.72;5.60;;;12.70;99.90;;;;;;2071778;28;20673;-71
2022/05/05 02:00:17;;;;;;;7.57;5.97;;;12.70;99.90;;;;;;2078230;28;20028;-71
2022/05/05 02:01:17;;;;;;;9.15;6.40;;;12.70;99.90;;;;;;2078177;28;20025;-71
2022/05/05 02:02:18;;;;;;;8.70;6.57;;;12.70;99.90;;;;;;2069976;28;20047;-71
2022/05/05 02:03:18;;;;;;;9.10;6.10;;;12.70;99.90;;;;;;2073256;28;20037;-71
2022/05/05 02:04:19;;;;;;;8.90;5.57;;;12.70;99.90;;;;;;2070208;28;20104;-71
2022/05/05 02:05:20;;;;;;;6.22;4.43;;;12.70;99.90;;;;;;2069160;28;20029;-71
2022/05/05 02:06:20;;;;;;;8.80;5.40;;;12.70;99.90;;;;;;2068377;28;20033;-71
2022/05/05 02:07:21;;;;;;;8.65;5.97;;;12.70;99.90;;;;;;2069367;28;20655;-71
2022/05/05 02:08:21;;;;;;;6.95;5.28;;;12.70;99.90;;;;;;2070597;28;20482;-71
2022/05/05 02:09:22;;;;;;;8.68;5.45;;;12.70;99.90;;;;;;2071890;28;20409;-71
2022/05/05 02:10:22;;;;;;;9.55;6.20;;;12.70;99.90;;;;;;2069097;28;20053;-71
2022/05/05 02:11:23;;;;;;;13.38;5.60;;;12.70;99.90;;;;;;2073227;28;20021;-71
2022/05/05 02:12:23;;;;;;;10.32;5.85;;;12.70;99.90;;;;;;2070374;28;20028;-71
2022/05/05 02:13:24;;;;;;;7.00;5.10;;;12.70;99.90;;;;;;2068413;28;20030;-71
2022/05/05 02:14:25;;;;;;;8.05;5.63;;;12.70;99.90;;;;;;2071918;28;20025;-71
2022/05/05 02:15:25;;;;;;;11.45;6.18;;;12.60;99.90;;;;;;2071849;28;20029;-71
2022/05/05 02:16:26;;;;;;;10.32;6.22;;;12.70;99.90;;;;;;2071852;28;20038;-71
2022/05/05 02:17:26;;;;;;;9.02;6.00;;;12.70;99.90;;;;;;2072047;28;20073;-71
2022/05/05 02:18:27;;;;;;;6.68;5.20;;;12.70;99.90;;;;;;2067821;28;20034;-71
2022/05/05 02:19:27;;;;;;;8.88;5.20;;;12.60;99.90;;;;;;2071661;28;20113;-71
2022/05/05 02:20:28;;;;;;;8.77;5.50;;;12.60;99.90;;;;;;2071361;28;20026;-71
2022/05/05 02:21:28;;;;;;;10.20;6.20;;;12.70;99.90;;;;;;2072467;28;20037;-71
2022/05/05 02:22:29;;;;;;;7.90;5.70;;;12.60;99.90;;;;;;2071499;28;20038;-71
2022/05/05 02:23:29;;;;;;;9.63;5.85;;;12.60;99.90;;;;;;2072075;28;20104;-71
2022/05/05 02:24:30;;;;;;;10.80;6.15;;;12.60;99.90;;;;;;2069341;28;20038;-71
2022/05/05 02:25:31;;;;;;;7.30;5.60;;;12.60;99.90;;;;;;2070587;28;20030;-71
2022/05/05 02:26:31;;;;;;;9.65;5.93;;;12.60;99.90;;;;;;2069349;28;20026;-71
2022/05/05 02:27:53;;;;;;;8.45;5.72;;;12.60;99.90;;;;;;2070880;28;20489;-71
2022/05/05 02:28:54;;;;;;;8.05;5.68;;;12.60;99.90;;;;;;2069754;28;20805;-71
2022/05/05 02:29:55;;;;;;;6.82;5.47;;;12.60;99.90;;;;;;2070452;28;20037;-71
2022/05/05 02:30:56;;;;;;;9.13;5.65;;;12.60;99.90;;;;;;2070582;28;20025;-71
2022/05/05 02:31:56;;;;;;;7.75;5.03;;;12.60;99.90;;;;;;2070783;28;20026;-71
2022/05/05 02:32:57;;;;;;;7.75;4.97;;;12.60;99.90;;;;;;2068333;28;20045;-71
2022/05/05 02:33:58;;;;;;;7.88;5.05;;;12.60;99.90;;;;;;2069665;28;20022;-71
2022/05/05 02:34:58;;;;;;;10.70;5.50;;;12.60;99.90;;;;;;2069410;28;20029;-71
2022/05/05 02:38:42;;;;;;;8.35;5.85;;;12.60;99.90;;;;;;2076964;28;20026;-71
2022/05/05 02:39:43;;;;;;;8.13;4.75;;;12.60;99.90;;;;;;2075270;28;20113;-71
2022/05/05 02:40:44;;;;;;;7.22;5.30;;;12.60;99.90;;;;;;2075067;28;20029;-71
2022/05/05 02:41:44;;;;;;;8.13;5.35;;;12.60;99.90;;;;;;2071046;28;20053;-71
2022/05/05 02:42:45;;;;;;;8.63;4.25;;;12.60;99.90;;;;;;2072032;28;21373;-71
2022/05/05 02:43:45;;;;;;;6.85;4.47;;;12.60;99.90;;;;;;2071796;28;20033;-71
2022/05/05 02:44:47;;;;;;;6.72;5.30;;;12.60;99.90;;;;;;2070770;28;20050;-71
2022/05/05 02:45:47;;;;;;;9.50;5.35;;;12.60;99.90;;;;;;2069719;28;20037;-71
2022/05/05 02:46:48;;;;;;;6.05;4.63;;;12.60;99.90;;;;;;2076585;28;20063;-71
2022/05/05 02:47:49;;;;;;;8.52;5.10;;;12.60;99.90;;;;;;2072134;28;20060;-71
2022/05/05 02:48:50;;;;;;;10.00;5.35;;;12.60;99.90;;;;;;2074497;28;20033;-71
2022/05/05 02:49:50;;;;;;;8.27;4.85;;;12.60;99.90;;;;;;2073027;28;20034;-71
2022/05/05 02:50:51;;;;;;;8.85;4.85;;;12.60;99.90;;;;;;2073411;28;20084;-71
2022/05/05 02:51:51;;;;;;;8.85;5.32;;;12.60;99.90;;;;;;2074440;28;20034;-71
2022/05/05 02:52:53;;;;;;;7.57;4.80;;;12.60;99.90;;;;;;2071088;28;20026;-71
2022/05/05 02:55:13;;;;;;;8.43;4.80;;;12.50;99.90;;;;;;2070334;28;20025;-71
2022/05/05 02:56:16;;;;;;;7.82;4.90;;;12.50;99.90;;;;;;2073471;28;21615;-71
2022/05/05 02:57:23;;;;;;;9.15;4.93;;;12.50;99.90;;;;;;2072953;28;20022;-71
2022/05/05 02:58:23;;;;;;;8.90;5.22;;;12.50;99.90;;;;;;2072503;28;20037;-71
2022/05/05 02:59:24;;;;;;;6.78;4.13;;;12.50;99.90;;;;;;2072735;28;20045;-71
2022/05/05 03:00:24;;;;;;;9.85;5.20;;;12.50;99.90;;;;;;2071544;28;20022;-71
2022/05/05 03:01:25;;;;;;;8.65;5.07;;;12.50;99.90;;;;;;2072889;28;20030;-71
2022/05/05 03:02:26;;;;;;;9.95;5.07;;;12.50;99.90;;;;;;2074693;28;20555;-71
2022/05/05 03:03:26;;;;;;;8.07;5.22;;;12.50;99.90;;;;;;2074348;28;20058;-71
2022/05/05 03:04:27;;;;;;;6.68;5.05;;;12.50;99.90;;;;;;2070725;28;20797;-71
2022/05/05 03:05:27;;;;;;;9.25;5.35;;;12.50;99.90;;;;;;2072026;28;20160;-71
2022/05/05 03:06:28;;;;;;;10.27;5.30;;;12.50;99.90;;;;;;2075314;28;20026;-71
2022/05/05 03:07:28;;;;;;;7.43;5.68;;;12.50;99.90;;;;;;2070747;28;20033;-71
2022/05/05 03:08:29;;;;;;;9.57;5.53;;;12.50;99.90;;;;;;2074623;28;20652;-71
2022/05/05 03:09:29;;;;;;;7.43;5.10;;;12.50;99.90;;;;;;2073791;28;20032;-71
2022/05/05 03:10:30;;;;;;;8.52;5.50;;;12.50;99.90;;;;;;2072458;28;20034;-71
2022/05/05 03:11:32;;;;;;;7.45;4.82;;;12.50;99.90;;;;;;2071385;28;20462;-71
2022/05/05 03:12:33;;;;;;;7.53;4.97;;;12.50;99.90;;;;;;2075544;28;20047;-71
2022/05/05 03:13:33;;;;;;;7.25;4.50;;;12.50;99.90;;;;;;2070374;28;20022;-71
2022/05/05 03:14:34;;;;;;;7.93;5.05;;;12.50;99.90;;;;;;2068577;28;20018;-71
2022/05/05 03:15:34;;;;;;;7.47;4.75;;;12.40;99.90;;;;;;2072427;28;20028;-71
2022/05/05 03:16:36;;;;;;;9.63;5.35;;;12.40;99.90;;;;;;2070940;28;20041;-71
2022/05/05 03:17:36;;;;;;;9.23;4.88;;;12.50;99.90;;;;;;2075173;28;20022;-71
2022/05/05 03:18:40;;;;;;;7.72;5.47;;;12.40;99.90;;;;;;2076105;28;20557;-71
2022/05/05 03:19:42;;;;;;;10.27;5.75;;;12.40;99.90;;;;;;2069105;28;20033;-71
2022/05/05 03:20:43;;;;;;;7.85;5.50;;;12.40;99.90;;;;;;2072397;28;20108;-71
2022/05/05 03:21:43;;;;;;;9.30;4.70;;;12.40;99.90;;;;;;2074601;28;20018;-71
2022/05/05 03:22:44;;;;;;;8.30;4.88;;;12.40;99.90;;;;;;2070811;28;20470;-71
2022/05/05 03:23:44;;;;;;;9.52;4.38;;;12.40;99.90;;;;;;2071549;28;20027;-71
2022/05/05 03:24:45;;;;;;;8.50;4.70;;;12.40;99.90;;;;;;2075671;28;20116;-71
2022/05/05 03:25:45;;;;;;;9.82;4.93;;;12.40;99.90;;;;;;2074132;28;20489;-71
2022/05/05 03:26:46;;;;;;;8.13;5.63;;;12.30;99.90;;;;;;2072174;28;20034;-71
2022/05/05 03:27:47;;;;;;;8.07;4.93;;;12.40;99.90;;;;;;2071204;28;20402;-71
2022/05/05 03:28:47;;;;;;;5.57;4.20;;;12.40;99.90;;;;;;2073660;28;20053;-71
2022/05/05 03:29:48;;;;;;;7.53;5.00;;;12.30;99.90;;;;;;2070129;28;20033;-71
2022/05/05 03:30:49;;;;;;;9.23;5.50;;;12.40;99.90;;;;;;2071457;28;20037;-71
2022/05/05 03:31:50;;;;;;;7.75;5.40;;;12.40;99.90;;;;;;2070893;28;20022;-71
2022/05/05 03:32:50;;;;;;;8.05;5.60;;;12.30;99.90;;;;;;2071649;28;20440;-71
2022/05/05 03:33:52;;;;;;;7.32;5.05;;;12.30;99.90;;;;;;2072356;28;20029;-71
2022/05/05 03:34:53;;;;;;;6.95;4.93;;;12.30;99.90;;;;;;2073051;28;20040;-71
2022/05/05 03:35:53;;;;;;;7.60;5.57;;;12.30;99.90;;;;;;2074741;28;20099;-71
2022/05/05 03:36:54;;;;;;;10.68;5.13;;;12.30;99.90;;;;;;2068960;28;20045;-71
2022/05/05 03:37:54;;;;;;;7.85;5.38;;;12.30;99.90;;;;;;2072551;28;20510;-71
2022/05/05 03:38:55;;;;;;;7.43;5.30;;;12.30;99.90;;;;;;2073439;28;20072;-71
2022/05/05 03:39:56;;;;;;;14.90;6.00;;;12.30;99.90;;;;;;2071952;28;20466;-71
2022/05/05 03:40:57;;;;;;;7.63;5.40;;;12.30;99.90;;;;;;2073046;28;20021;-71
2022/05/05 03:41:57;;;;;;;8.05;5.47;;;12.30;99.90;;;;;;2071151;28;20105;-71
2022/05/05 03:42:58;;;;;;;10.45;6.15;;;12.20;99.90;;;;;;2072378;28;20025;-71
2022/05/05 03:43:59;;;;;;;11.25;5.95;;;12.30;99.90;;;;;;2070980;28;20044;-71
2022/05/05 03:44:59;;;;;;;9.15;5.40;;;12.30;99.90;;;;;;2072151;28;20037;-71
2022/05/05 03:46:00;;;;;;;7.75;5.43;;;12.20;99.90;;;;;;2074692;28;20029;-71
2022/05/05 03:47:00;;;;;;;6.38;5.55;;;12.20;99.90;;;;;;2073619;28;20026;-71
2022/05/05 03:48:01;;;;;;;9.00;5.68;;;12.20;99.90;;;;;;2072315;28;20061;-71
2022/05/05 03:49:02;;;;;;;9.48;5.53;;;12.20;99.90;;;;;;2073250;28;20025;-71
2022/05/05 03:50:02;;;;;;;8.95;6.10;;;12.20;99.90;;;;;;2073106;28;20900;-71
2022/05/05 03:51:03;;;;;;;8.00;5.50;;;12.20;99.90;;;;;;2075669;28;20109;-71
2022/05/05 03:52:04;;;;;;;8.70;6.13;;;12.20;99.90;;;;;;2073663;28;20346;-71
2022/05/05 03:53:05;;;;;;;9.85;5.80;;;12.20;99.90;;;;;;2070595;28;20034;-71
2022/05/05 03:54:06;;;;;;;10.73;5.88;;;12.20;99.90;;;;;;2071272;28;20030;-71
2022/05/05 03:55:07;;;;;;;12.18;6.15;;;12.20;99.90;;;;;;2070090;28;20477;-71
2022/05/05 03:56:08;;;;;;;8.07;5.57;;;12.10;99.90;;;;;;2073086;28;20018;-71
2022/05/05 03:57:08;;;;;;;10.13;5.25;;;12.10;99.90;;;;;;2072209;28;20620;-71
2022/05/05 03:58:09;;;;;;;8.73;5.85;;;12.10;99.90;;;;;;2072471;28;20029;-71
2022/05/05 03:59:10;;;;;;;7.53;5.95;;;12.10;99.90;;;;;;2071676;28;20030;-71
2022/05/05 04:00:11;;;;;;;7.78;5.90;;;12.10;99.90;;;;;;2070876;28;20041;-71
2022/05/05 04:01:11;;;;;;;10.43;5.65;;;12.10;99.90;;;;;;2069631;28;20029;-71
2022/05/05 04:02:12;;;;;;;12.57;6.57;;;12.10;99.90;;;;;;2073048;28;20080;-71
2022/05/05 04:03:30;;;;;;;8.98;5.43;;;12.10;99.90;;;;;;2068468;28;20152;-71
2022/05/05 04:04:31;;;;;;;10.40;5.63;;;12.00;99.90;;;;;;2070947;28;20394;-71
2022/05/05 04:05:31;;;;;;;16.83;6.88;;;12.00;99.90;;;;;;2071022;28;20046;-71
2022/05/05 04:06:32;;;;;;;9.02;6.45;;;12.00;99.90;;;;;;2074643;28;20114;-71
2022/05/05 04:07:33;;;;;;;7.38;5.78;;;12.00;99.90;;;;;;2071909;28;20429;-71
2022/05/05 04:08:34;;;;;;;9.50;6.55;;;12.00;99.90;;;;;;2070971;28;20101;-71
2022/05/05 04:09:34;;;;;;;9.95;6.88;;;12.00;99.90;;;;;;2072736;28;20033;-71
2022/05/05 04:10:35;;;;;;;9.57;6.43;;;11.90;99.90;;;;;;2069112;28;20023;-71
2022/05/05 04:11:36;;;;;;;12.70;7.15;;;12.00;99.90;;;;;;2070183;28;20045;-71
2022/05/05 04:12:36;;;;;;;10.18;6.32;;;11.90;99.90;;;;;;2073309;28;20046;-71
2022/05/05 04:13:38;;;;;;;7.60;6.20;;;11.90;99.90;;;;;;2070094;28;20036;-71
2022/05/05 04:14:39;;;;;;;9.75;6.78;;;11.90;99.90;;;;;;2068845;28;20018;-71
2022/05/05 04:15:40;;;;;;;8.35;6.78;;;11.90;99.90;;;;;;2067916;28;20034;-71
2022/05/05 04:16:41;;;;;;;8.27;5.75;;;11.90;99.90;;;;;;2068896;28;20375;-71
2022/05/05 04:17:42;;;;;;;8.38;5.60;;;11.90;99.90;;;;;;2068178;28;20434;-71
2022/05/05 04:18:43;;;;;;;9.60;6.47;;;11.80;99.90;;;;;;2069541;28;20026;-71
2022/05/05 04:19:44;;;;;;;11.90;7.88;;;11.80;99.90;;;;;;2069387;28;20108;-71
2022/05/05 04:20:47;;;;;;;13.98;7.85;;;11.80;99.90;;;;;;2069575;28;20034;-71
2022/05/05 04:21:47;;;;;;;11.90;8.20;;;11.80;99.90;;;;;;2072925;28;20022;-71
2022/05/05 04:22:49;;;;;;;8.93;7.00;;;11.80;99.90;;;;;;2073537;28;20038;-71
2022/05/05 04:23:50;;;;;;;12.60;7.90;;;11.70;99.90;;;;;;2071889;28;20052;-71
2022/05/05 04:24:51;;;;;;;11.45;7.25;;;11.70;99.90;;;;;;2071344;28;20675;-71
2022/05/05 04:25:52;;;;;;;9.82;6.88;;;11.70;99.90;;;;;;2070380;28;20105;-71
2022/05/05 04:26:52;;;;;;;10.80;7.28;;;11.80;99.90;;;;;;2073274;28;20026;-71
2022/05/05 04:27:53;;;;;;;11.48;6.55;;;11.70;99.90;;;;;;2071328;28;20053;-71
2022/05/05 04:28:56;;;;;;;10.65;7.72;;;11.70;99.90;;;;;;2071953;28;20485;-71
2022/05/05 04:29:57;;;;;;;10.55;6.97;;;11.70;99.90;;;;;;2070699;28;20147;-71
2022/05/05 04:30:58;;;;;;;11.50;8.00;;;11.70;99.90;;;;;;2071362;28;20025;-71
2022/05/05 04:31:59;;;;;;;12.07;6.93;;;11.70;99.90;;;;;;2073498;28;20068;-71
2022/05/05 04:33:00;;;;;;;10.35;6.38;;;11.60;99.90;;;;;;2070881;28;20102;-71
2022/05/05 04:34:00;;;;;;;12.57;7.00;;;11.60;99.90;;;;;;2072241;28;20040;-71
2022/05/05 04:35:01;;;;;;;9.25;6.13;;;11.70;99.90;;;;;;2070311;28;20042;-71
2022/05/05 04:36:02;;;;;;;12.63;7.53;;;11.60;99.90;;;;;;2071026;28;20650;-71
2022/05/05 04:37:02;;;;;;;9.95;6.35;;;11.70;99.90;;;;;;2073960;28;20018;-71
2022/05/05 04:38:03;;;;;;;11.77;7.00;;;11.60;99.90;;;;;;2071895;28;20022;-71
2022/05/05 04:39:05;;;;;;;11.48;7.80;;;11.60;99.90;;;;;;2070770;28;20025;-71
2022/05/05 04:40:07;;;;;;;10.18;7.38;;;11.60;99.90;;;;;;2070061;28;20041;-71
2022/05/05 04:41:08;;;;;;;11.95;6.97;;;11.60;99.90;;;;;;2070681;28;20033;-71
2022/05/05 04:42:10;;;;;;;12.75;7.47;;;11.60;99.90;;;;;;2069696;28;20029;-71
2022/05/05 04:43:10;;;;;;;7.40;5.97;;;11.60;99.90;;;;;;2073018;28;20041;-71
2022/05/05 04:44:11;;;;;;;8.45;6.40;;;11.60;99.90;;;;;;2073414;28;20026;-71
2022/05/05 04:45:12;;;;;;;11.15;7.45;;;11.60;99.90;;;;;;2071058;28;20110;-71
2022/05/05 04:46:12;;;;;;;10.05;6.93;;;11.60;99.90;;;;;;2070101;28;20041;-71
2022/05/05 04:47:13;;;;;;;8.43;6.70;;;11.60;99.90;;;;;;2070754;28;20084;-71
2022/05/05 04:48:13;;;;;;;11.88;7.20;;;11.60;99.90;;;;;;2071158;28;20514;-71
2022/05/05 04:49:14;;;;;;;10.15;6.85;;;11.60;99.90;;;;;;2068944;28;20073;-71
2022/05/05 04:50:14;;;;;;;9.13;7.15;;;11.60;99.90;;;;;;2072070;28;20940;-71
2022/05/05 04:51:16;;;;;;;10.07;6.07;;;11.60;99.90;;;;;;2066065;28;20030;-71
2022/05/05 04:52:16;;;;;;;10.32;6.88;;;11.60;99.90;;;;;;2072502;28;20048;-71
2022/05/05 04:53:17;;;;;;;10.35;6.53;;;11.60;99.90;;;;;;2073853;28;20043;-71
2022/05/05 04:54:17;;;;;;;7.80;6.70;;;11.60;99.90;;;;;;2068377;28;20026;-71
2022/05/05 04:55:18;;;;;;;8.68;7.03;;;11.60;99.90;;;;;;2069938;28;20478;-71
2022/05/05 04:56:18;;;;;;;11.43;7.03;;;11.60;99.90;;;;;;2073957;28;20097;-71
2022/05/05 04:57:19;;;;;;;11.40;6.05;;;11.60;99.90;;;;;;2071196;28;20022;-71
2022/05/05 04:58:20;;;;;;;9.82;6.55;;;11.60;99.90;;;;;;2069288;28;20029;-71
2022/05/05 04:59:20;;;;;;;9.10;6.50;;;11.60;99.90;;;;;;2072080;28;20395;-71
2022/05/05 05:00:22;;;;;;;10.85;6.85;;;11.60;99.90;;;;;;2070942;28;20018;-71
2022/05/05 05:01:23;;;;;;;12.30;7.40;;;11.60;99.90;;;;;;2069759;28;20042;-71
2022/05/05 05:02:23;;;;;;;13.43;7.72;;;11.70;99.90;;;;;;2071567;28;20026;-71
2022/05/05 05:03:33;;;;;;;13.43;7.90;;;11.70;99.90;;;;;;2071881;28;20064;-71
2022/05/05 05:04:33;;;;;;;11.77;6.82;;;11.70;99.90;;;;;;2070351;28;20524;-71
2022/05/05 05:05:34;;;;;;;12.13;6.93;;;11.60;99.90;;;;;;2070351;28;20661;-71
2022/05/05 05:06:34;;;;;;;11.63;7.05;;;11.70;99.90;;;;;;2071914;28;20029;-71
2022/05/05 05:07:35;;;;;;;10.70;7.35;;;11.70;99.90;;;;;;2074600;28;20034;-71
2022/05/05 05:08:37;;;;;;;15.13;8.00;;;11.70;99.90;;;;;;2071231;28;20390;-71
2022/05/05 05:09:37;;;;;;;12.32;7.13;;;11.80;99.90;;;;;;2071248;28;20557;-71
2022/05/05 05:10:38;;;;;;;9.38;7.18;;;11.70;99.90;;;;;;2071501;28;20446;-71
2022/05/05 05:11:38;;;;;;;9.65;7.03;;;11.70;99.90;;;;;;2071172;28;20033;-71
2022/05/05 05:12:39;;;;;;;12.95;7.72;;;11.80;99.90;;;;;;2071893;28;20124;-71
2022/05/05 05:13:39;;;;;;;10.10;7.60;;;11.80;99.90;;;;;;2072593;28;20030;-71
2022/05/05 05:14:40;;;;;;;12.82;7.38;;;11.80;99.90;;;;;;2067940;28;20061;-71
2022/05/05 05:15:40;;;;;;;12.65;6.60;;;11.80;99.90;;;;;;2070964;28;20033;-71
2022/05/05 05:16:41;;;;;;;8.38;6.75;;;11.90;99.90;;;;;;2072417;28;20397;-71
2022/05/05 05:17:42;;;;;;;11.98;6.63;;;11.90;99.90;;;;;;2070351;28;20500;-71
2022/05/05 05:18:42;;;;;;;11.60;7.88;;;11.90;99.90;;;;;;2070444;28;20069;-71
2022/05/05 05:19:43;;;;;;;12.15;8.07;;;11.90;99.90;;;;;;2070296;28;20402;-71
2022/05/05 05:20:43;;;;;;;11.30;7.13;;;12.00;99.90;;;;;;2070185;28;20060;-71
2022/05/05 05:21:44;;;;;;;11.98;7.32;;;12.00;99.90;;;;;;2071691;28;20521;-71
2022/05/05 05:22:45;;;;;;;12.25;7.50;;;12.00;99.90;;;;;;2071530;28;20054;-71
2022/05/05 05:23:45;;;;;;;10.25;7.93;;;12.00;99.90;;;;;;2070963;28;20652;-71
2022/05/05 05:24:46;;;;;;;12.68;7.47;;;12.10;99.90;;;;;;2070944;28;20061;-71
2022/05/05 05:25:46;;;;;;;13.77;8.35;;;12.10;99.90;;;;;;2068980;28;20052;-71
2022/05/05 05:26:47;;;;;;;11.18;8.43;;;12.10;99.90;;;;;;2067131;28;20545;-71
2022/05/05 05:27:47;;;;;;;15.68;8.10;;;12.10;99.90;;;;;;2067301;28;20026;-71